Time;durP1;ratioP1;P1;durP2;ratioP2;P2;SDS_P1;SDS_P2;PMS_P1;PMS_P2;Temp;Humidity;BMP_temperature;BMP_pressure;BME280_temperature;BME280_humidity;BME280_pressure;Samples;Min_cycle;Max_cycle;Signal;HPM_P1;HPM_P2
2021/08/21 00:02:21;;;;;;;2.23;1.70;;;17.90;98.00;;;;;;5073187;28;20539;-75
2021/08/21 00:04:51;;;;;;;1.70;1.60;;;17.90;98.00;;;;;;5073145;28;20453;-74
2021/08/21 00:07:18;;;;;;;1.70;1.47;;;18.00;98.00;;;;;;5073255;28;20487;-74
2021/08/21 00:09:46;;;;;;;1.77;1.57;;;17.70;98.00;;;;;;5073133;28;20460;-74
2021/08/21 00:12:13;;;;;;;1.60;1.50;;;17.50;98.00;;;;;;5073119;28;20449;-74
2021/08/21 00:14:41;;;;;;;2.27;1.37;;;17.50;98.00;;;;;;5072829;28;20531;-73
2021/08/21 00:17:08;;;;;;;1.30;1.30;;;17.30;98.00;;;;;;5072884;28;20453;-73
2021/08/21 00:19:35;;;;;;;3.20;1.30;;;17.20;98.00;;;;;;5072702;28;20531;-73
2021/08/21 00:22:04;;;;;;;1.67;1.30;;;17.20;98.00;;;;;;5072906;28;20468;-74
2021/08/21 00:24:31;;;;;;;2.00;1.60;;;17.30;98.00;;;;;;5072629;28;20456;-75
2021/08/21 00:26:58;;;;;;;1.27;1.20;;;17.40;98.00;;;;;;5072908;28;20528;-74
2021/08/21 00:29:25;;;;;;;1.67;1.33;;;17.30;98.00;;;;;;5071809;28;20484;-74
2021/08/21 00:31:53;;;;;;;1.30;1.20;;;17.30;98.00;;;;;;5072354;28;20483;-74
2021/08/21 00:34:20;;;;;;;2.07;1.40;;;17.40;98.00;;;;;;5072536;28;20492;-74
2021/08/21 00:36:47;;;;;;;2.17;1.60;;;17.20;98.00;;;;;;5072468;28;20481;-74
2021/08/21 00:39:14;;;;;;;1.40;1.37;;;17.00;98.00;;;;;;5072406;28;20582;-74
2021/08/21 00:41:42;;;;;;;1.93;1.60;;;16.90;98.00;;;;;;5072306;28;20537;-73
2021/08/21 00:44:09;;;;;;;1.90;1.50;;;17.00;98.00;;;;;;5072421;28;20499;-73
2021/08/21 00:46:56;;;;;;;1.73;1.47;;;17.00;98.00;;;;;;5072112;28;20546;-74
2021/08/21 00:49:23;;;;;;;1.50;1.30;;;16.90;98.00;;;;;;5072323;28;20595;-74
2021/08/21 00:51:50;;;;;;;2.17;1.50;;;16.90;98.00;;;;;;5072157;28;20959;-74
2021/08/21 00:54:17;;;;;;;1.20;1.20;;;16.90;98.00;;;;;;5072072;28;20453;-75
2021/08/21 00:56:44;;;;;;;1.20;1.10;;;16.90;98.00;;;;;;5072022;28;20526;-74
2021/08/21 00:59:11;;;;;;;1.40;1.30;;;16.80;98.00;;;;;;5071877;28;20576;-73
2021/08/21 01:01:38;;;;;;;1.40;1.30;;;16.70;98.00;;;;;;5071909;28;20485;-74
2021/08/21 01:04:07;;;;;;;1.37;1.20;;;16.60;98.00;;;;;;5072123;28;20535;-73
2021/08/21 01:06:34;;;;;;;1.30;1.20;;;16.40;98.00;;;;;;5072056;28;20488;-74
2021/08/21 01:09:01;;;;;;;1.33;1.10;;;16.40;98.00;;;;;;5054446;28;20769;-73
2021/08/21 01:11:31;;;;;;;1.83;1.43;;;16.30;98.00;;;;;;5071831;28;20511;-74
2021/08/21 01:13:58;;;;;;;1.20;1.20;;;16.30;98.00;;;;;;5054230;28;20450;-74
2021/08/21 01:16:25;;;;;;;1.50;1.40;;;16.40;98.00;;;;;;5071652;28;20495;-73
2021/08/21 01:18:52;;;;;;;1.43;1.20;;;16.30;98.00;;;;;;5071766;28;20516;-74
2021/08/21 01:21:24;;;;;;;2.63;1.30;;;16.30;98.00;;;;;;5071495;28;20453;-73
2021/08/21 01:23:51;;;;;;;1.93;1.50;;;16.20;98.00;;;;;;5070986;28;20457;-75
2021/08/21 01:26:18;;;;;;;1.20;1.20;;;16.20;98.00;;;;;;5071518;28;20484;-74
2021/08/21 01:28:47;;;;;;;1.77;1.20;;;16.10;98.00;;;;;;5071645;28;20550;-75
2021/08/21 01:31:14;;;;;;;2.70;1.30;;;16.10;98.00;;;;;;5053575;28;20503;-74
2021/08/21 01:33:41;;;;;;;1.40;1.30;;;16.10;98.00;;;;;;5071258;28;20912;-74
2021/08/21 01:36:08;;;;;;;2.13;1.43;;;16.10;98.00;;;;;;5071330;28;20449;-73
2021/08/21 01:38:38;;;;;;;3.00;1.40;;;16.10;98.00;;;;;;5053483;28;20512;-75
2021/08/21 01:41:05;;;;;;;1.40;1.30;;;16.00;98.00;;;;;;5070962;28;20491;-74
2021/08/21 01:43:32;;;;;;;1.20;1.10;;;16.00;98.00;;;;;;5071274;28;20456;-74
2021/08/21 01:46:00;;;;;;;1.93;1.77;;;16.00;98.00;;;;;;5071151;28;20449;-74
2021/08/21 01:48:27;;;;;;;2.53;1.50;;;16.00;98.00;;;;;;5071278;28;20521;-74
2021/08/21 01:50:54;;;;;;;1.53;1.40;;;15.90;98.00;;;;;;5070756;28;20526;-73
2021/08/21 01:53:22;;;;;;;2.77;1.43;;;16.00;98.00;;;;;;5053445;28;20486;-74
2021/08/21 01:55:49;;;;;;;1.40;1.30;;;16.00;98.00;;;;;;5036882;28;20903;-73
2021/08/21 01:58:23;;;;;;;2.07;1.37;;;16.10;98.00;;;;;;5071059;28;20485;-73
2021/08/21 02:00:50;;;;;;;1.20;1.20;;;16.20;98.00;;;;;;5070928;28;20456;-74
2021/08/21 02:03:18;;;;;;;1.60;1.30;;;16.30;98.00;;;;;;5053318;28;20461;-73
2021/08/21 02:05:45;;;;;;;2.10;1.53;;;16.20;98.00;;;;;;5071007;28;20479;-73
2021/08/21 02:08:12;;;;;;;1.20;1.20;;;16.20;98.00;;;;;;5071062;28;20679;-74
2021/08/21 02:10:39;;;;;;;1.53;1.30;;;16.10;98.00;;;;;;5070819;28;20453;-74
2021/08/21 02:13:06;;;;;;;1.30;1.23;;;16.00;98.00;;;;;;5053138;28;20457;-74
2021/08/21 02:15:33;;;;;;;1.30;1.20;;;16.10;98.00;;;;;;5070752;28;20460;-75
2021/08/21 02:18:00;;;;;;;1.50;1.30;;;16.10;98.00;;;;;;5071056;28;20485;-73
2021/08/21 02:20:33;;;;;;;1.20;1.20;;;16.20;98.00;;;;;;5070828;28;20567;-74
2021/08/21 02:23:00;;;;;;;1.60;1.20;;;16.10;98.00;;;;;;5070458;28;20526;-74
2021/08/21 02:25:28;;;;;;;2.70;1.30;;;16.00;98.00;;;;;;5071030;28;20491;-74
2021/08/21 02:27:59;;;;;;;1.20;1.10;;;16.00;98.00;;;;;;5071140;28;20827;-73
2021/08/21 02:30:27;;;;;;;1.50;1.37;;;15.90;98.00;;;;;;5070893;28;20499;-74
2021/08/21 02:32:54;;;;;;;2.23;1.40;;;15.80;98.00;;;;;;5070695;28;20503;-74
2021/08/21 02:35:21;;;;;;;1.20;1.10;;;15.70;98.00;;;;;;5052766;28;20448;-73
2021/08/21 02:37:49;;;;;;;2.43;1.50;;;15.70;98.00;;;;;;5070965;28;20488;-74
2021/08/21 02:40:17;;;;;;;1.30;1.27;;;15.80;98.00;;;;;;5070565;28;20525;-73
2021/08/21 02:42:44;;;;;;;1.40;1.30;;;15.80;98.00;;;;;;5070696;28;20496;-74
2021/08/21 02:45:11;;;;;;;1.50;1.40;;;15.90;98.00;;;;;;5070581;28;20693;-73
2021/08/21 02:47:40;;;;;;;1.43;1.27;;;16.00;98.00;;;;;;5070628;28;20460;-74
2021/08/21 02:50:08;;;;;;;1.20;1.10;;;16.00;98.00;;;;;;5070429;28;20547;-75
2021/08/21 02:52:40;;;;;;;1.50;1.43;;;15.90;98.00;;;;;;5072562;28;20480;-73
2021/08/21 02:55:09;;;;;;;1.20;1.20;;;15.90;98.00;;;;;;5057103;28;20448;-73
2021/08/21 02:57:36;;;;;;;1.53;1.13;;;16.10;98.00;;;;;;5074262;28;21025;-73
2021/08/21 03:00:04;;;;;;;1.50;1.30;;;16.10;98.00;;;;;;5074183;28;20519;-73
2021/08/21 03:02:31;;;;;;;1.20;1.20;;;16.00;98.00;;;;;;5074288;28;20551;-74
2021/08/21 03:04:58;;;;;;;1.70;1.47;;;16.00;98.00;;;;;;5074154;28;20513;-74
2021/08/21 03:07:24;;;;;;;1.60;1.40;;;16.20;98.00;;;;;;5074216;28;20526;-73
2021/08/21 03:09:51;;;;;;;1.90;1.33;;;16.10;98.00;;;;;;5074068;28;20551;-75
2021/08/21 03:12:20;;;;;;;1.80;1.37;;;16.00;98.00;;;;;;5056332;28;20499;-74
2021/08/21 03:14:46;;;;;;;1.30;1.30;;;15.90;98.00;;;;;;5073910;28;20491;-74
2021/08/21 03:17:13;;;;;;;2.10;1.47;;;15.80;98.00;;;;;;5073957;28;20503;-74
2021/08/21 03:19:44;;;;;;;3.60;1.63;;;15.80;98.00;;;;;;5073958;28;20645;-73
2021/08/21 03:22:11;;;;;;;1.50;1.43;;;15.80;98.00;;;;;;5073980;28;20461;-73
2021/08/21 03:24:38;;;;;;;1.50;1.10;;;15.80;98.00;;;;;;5073821;28;20494;-75
2021/08/21 03:27:05;;;;;;;2.13;1.20;;;15.90;98.00;;;;;;5073907;28;20491;-73
2021/08/21 03:29:34;;;;;;;1.20;1.00;;;16.00;98.00;;;;;;5073874;28;20538;-73
2021/08/21 03:32:01;;;;;;;1.93;1.27;;;16.00;98.00;;;;;;5073567;28;20488;-74
2021/08/21 03:34:28;;;;;;;1.87;1.40;;;16.00;98.00;;;;;;5073849;28;20453;-73
2021/08/21 03:36:55;;;;;;;1.33;1.20;;;16.00;98.00;;;;;;5073755;28;20506;-74
2021/08/21 03:39:22;;;;;;;1.87;1.30;;;16.00;98.00;;;;;;5055948;28;20876;-73
2021/08/21 03:41:49;;;;;;;1.33;1.27;;;16.10;98.00;;;;;;5073660;28;20457;-73
2021/08/21 03:44:16;;;;;;;1.60;1.30;;;16.00;98.00;;;;;;5073786;28;20499;-75
2021/08/21 03:46:45;;;;;;;1.60;1.50;;;15.90;98.00;;;;;;5073683;28;20519;-75
2021/08/21 03:49:12;;;;;;;2.23;1.93;;;15.80;98.00;;;;;;5074167;28;20493;-73
2021/08/21 03:51:39;;;;;;;1.30;1.10;;;15.60;98.00;;;;;;5073498;28;20456;-75
2021/08/21 03:54:06;;;;;;;1.97;1.30;;;15.60;98.00;;;;;;5073643;28;20511;-74
2021/08/21 03:56:33;;;;;;;1.43;1.20;;;15.50;98.00;;;;;;5055432;28;20452;-73
2021/08/21 03:59:00;;;;;;;1.60;1.33;;;15.40;98.00;;;;;;5073164;28;20519;-73
2021/08/21 04:01:27;;;;;;;1.30;1.10;;;15.40;98.00;;;;;;5073383;28;20460;-74
2021/08/21 04:03:55;;;;;;;1.60;1.43;;;15.40;98.00;;;;;;5073000;28;20982;-74
2021/08/21 04:06:23;;;;;;;2.23;1.57;;;15.40;98.00;;;;;;5073212;28;20487;-74
2021/08/21 04:08:50;;;;;;;1.40;1.30;;;15.30;98.00;;;;;;5073131;28;20954;-73
2021/08/21 04:11:17;;;;;;;2.07;1.40;;;15.30;98.00;;;;;;5072986;28;20492;-74
2021/08/21 04:13:45;;;;;;;1.30;1.20;;;15.40;98.00;;;;;;5073094;28;20967;-73
2021/08/21 04:16:12;;;;;;;2.20;1.20;;;15.30;98.00;;;;;;5072866;28;20500;-73
2021/08/21 04:18:42;;;;;;;1.50;1.20;;;15.40;98.00;;;;;;5072905;28;20503;-74
2021/08/21 04:21:10;;;;;;;1.40;1.20;;;15.40;98.00;;;;;;5038733;28;20793;-74
2021/08/21 04:23:37;;;;;;;1.60;1.20;;;15.30;98.00;;;;;;5072756;28;20512;-73
2021/08/21 04:26:04;;;;;;;1.47;1.30;;;15.40;98.00;;;;;;5072707;28;20974;-73
2021/08/21 04:28:32;;;;;;;1.40;1.20;;;15.50;98.00;;;;;;5072668;28;20523;-73
2021/08/21 04:30:59;;;;;;;1.73;1.37;;;15.40;98.00;;;;;;5072611;28;20539;-73
2021/08/21 04:33:26;;;;;;;1.50;1.50;;;15.30;98.00;;;;;;5072449;28;20499;-74
2021/08/21 04:35:54;;;;;;;1.30;1.20;;;15.30;98.00;;;;;;5072439;28;20862;-74
2021/08/21 04:38:23;;;;;;;1.20;1.10;;;15.30;98.00;;;;;;5072488;28;20485;-73
2021/08/21 04:40:53;;;;;;;1.20;1.10;;;15.30;98.00;;;;;;5072325;28;20484;-74
2021/08/21 04:43:20;;;;;;;1.30;1.10;;;15.20;98.00;;;;;;5072335;28;20545;-73
2021/08/21 04:45:47;;;;;;;2.30;1.33;;;15.30;98.00;;;;;;5072412;28;20949;-75
2021/08/21 04:48:14;;;;;;;1.40;1.30;;;15.20;98.00;;;;;;5072562;28;20456;-73
2021/08/21 04:50:41;;;;;;;1.30;1.20;;;15.10;98.00;;;;;;5054524;28;20518;-75
2021/08/21 04:53:08;;;;;;;2.27;1.30;;;15.10;98.00;;;;;;5054685;28;20483;-73
2021/08/21 04:55:37;;;;;;;1.30;1.30;;;15.10;98.00;;;;;;5072081;28;20488;-73
2021/08/21 04:58:04;;;;;;;1.30;1.13;;;15.10;98.00;;;;;;5072297;28;20461;-74
2021/08/21 05:00:31;;;;;;;1.23;1.23;;;15.10;98.00;;;;;;5072033;28;20542;-73
2021/08/21 05:02:58;;;;;;;2.60;1.73;;;15.10;98.00;;;;;;5072101;28;21044;-73
2021/08/21 05:05:26;;;;;;;1.50;1.40;;;15.10;98.00;;;;;;5072199;28;20548;-73
2021/08/21 05:07:54;;;;;;;1.57;1.37;;;15.20;98.00;;;;;;5072158;28;20539;-74
2021/08/21 05:10:21;;;;;;;1.50;1.37;;;15.30;98.00;;;;;;5054568;28;20545;-74
2021/08/21 05:12:49;;;;;;;2.40;1.50;;;15.40;98.00;;;;;;5072054;28;20946;-74
2021/08/21 05:15:17;;;;;;;1.40;1.10;;;15.50;98.00;;;;;;5053594;28;20534;-74
2021/08/21 05:17:44;;;;;;;1.80;1.30;;;15.50;98.00;;;;;;5071815;28;20453;-73
2021/08/21 05:20:16;;;;;;;1.80;1.30;;;15.50;98.00;;;;;;5071814;28;20889;-73
2021/08/21 05:22:59;;;;;;;4.47;1.80;;;15.50;98.00;;;;;;5071623;28;20464;-74
2021/08/21 05:25:26;;;;;;;1.50;1.20;;;15.60;98.00;;;;;;5071737;28;20509;-75
2021/08/21 05:27:54;;;;;;;1.67;1.50;;;15.60;98.00;;;;;;5071560;28;20480;-74
2021/08/21 05:30:27;;;;;;;2.03;1.40;;;15.70;98.00;;;;;;5071588;28;20514;-74
2021/08/21 05:32:54;;;;;;;1.50;1.30;;;15.80;98.00;;;;;;5071274;28;20464;-74
2021/08/21 05:35:21;;;;;;;2.13;1.70;;;15.80;98.00;;;;;;5071447;28;20449;-74
2021/08/21 05:37:48;;;;;;;1.23;1.17;;;15.90;98.00;;;;;;5071308;28;20996;-73
2021/08/21 05:40:15;;;;;;;1.30;1.10;;;16.00;98.00;;;;;;5071101;28;20487;-74
2021/08/21 05:42:42;;;;;;;1.50;1.30;;;16.10;98.00;;;;;;5071346;28;20492;-74
2021/08/21 05:45:11;;;;;;;1.53;1.37;;;16.30;98.00;;;;;;5071283;28;20511;-74
2021/08/21 05:47:38;;;;;;;1.30;1.20;;;16.30;98.00;;;;;;5071196;28;20506;-74
2021/08/21 05:50:07;;;;;;;1.30;1.20;;;16.40;98.00;;;;;;5071137;28;20495;-73
2021/08/21 05:52:34;;;;;;;1.70;1.40;;;16.50;98.00;;;;;;5053362;28;20531;-74
2021/08/21 05:55:01;;;;;;;1.40;1.30;;;16.60;98.00;;;;;;5070909;28;20488;-74
2021/08/21 05:57:28;;;;;;;1.50;1.20;;;16.70;98.00;;;;;;5071316;28;20488;-73
2021/08/21 05:59:55;;;;;;;1.50;1.30;;;16.80;98.00;;;;;;5053363;28;20531;-75
2021/08/21 06:02:25;;;;;;;1.53;1.37;;;16.70;98.00;;;;;;5053458;28;20461;-76
2021/08/21 06:04:52;;;;;;;1.47;1.30;;;16.80;98.00;;;;;;5071049;28;20510;-75
2021/08/21 06:07:19;;;;;;;1.40;1.30;;;16.80;98.00;;;;;;5071040;28;20461;-75
2021/08/21 06:09:46;;;;;;;1.40;1.27;;;16.90;98.00;;;;;;5070986;28;20488;-76
2021/08/21 06:12:13;;;;;;;2.23;1.40;;;17.00;98.00;;;;;;5071015;28;20982;-76
2021/08/21 06:14:40;;;;;;;1.60;1.20;;;17.00;98.00;;;;;;5053174;28;20542;-76
2021/08/21 06:17:09;;;;;;;1.73;1.40;;;17.00;98.00;;;;;;5071073;28;20616;-75
2021/08/21 06:19:38;;;;;;;1.30;1.20;;;17.10;98.00;;;;;;5070862;28;20452;-75
2021/08/21 06:22:06;;;;;;;1.97;1.30;;;17.10;98.00;;;;;;5070702;28;20546;-75
2021/08/21 06:24:34;;;;;;;1.60;1.37;;;17.20;98.00;;;;;;5070998;28;21068;-76
2021/08/21 06:27:01;;;;;;;1.20;1.13;;;17.20;98.00;;;;;;5072105;28;20453;-75
2021/08/21 06:29:34;;;;;;;1.87;1.20;;;17.30;98.00;;;;;;5057606;28;20460;-75
2021/08/21 06:32:01;;;;;;;1.73;1.53;;;17.20;98.00;;;;;;5058250;28;20854;-76
2021/08/21 06:34:28;;;;;;;1.50;1.20;;;17.30;98.00;;;;;;5075122;28;20948;-75
2021/08/21 06:36:57;;;;;;;1.70;1.27;;;17.40;98.00;;;;;;5074830;28;20457;-76
2021/08/21 06:39:24;;;;;;;1.23;1.17;;;17.50;98.00;;;;;;5074929;28;20484;-75
2021/08/21 06:41:51;;;;;;;1.60;1.47;;;17.70;98.00;;;;;;5074520;28;20484;-77
2021/08/21 06:44:20;;;;;;;2.47;1.60;;;17.80;98.00;;;;;;5074703;28;20962;-76
2021/08/21 06:46:47;;;;;;;1.57;1.50;;;17.80;98.00;;;;;;5074662;28;20939;-75
2021/08/21 06:49:14;;;;;;;1.33;1.17;;;17.90;98.00;;;;;;5056774;28;20481;-75
2021/08/21 06:51:41;;;;;;;1.60;1.27;;;18.00;98.00;;;;;;5074444;28;20935;-76
2021/08/21 06:54:09;;;;;;;1.70;1.47;;;18.00;98.00;;;;;;5056837;28;20499;-75
2021/08/21 06:56:37;;;;;;;1.70;1.43;;;17.90;98.00;;;;;;5074303;28;20484;-76
2021/08/21 06:59:04;;;;;;;1.40;1.20;;;17.90;98.00;;;;;;5074557;28;20492;-76
2021/08/21 07:01:31;;;;;;;1.60;1.47;;;18.00;98.00;;;;;;5074322;28;20938;-76
2021/08/21 07:03:58;;;;;;;1.50;1.20;;;18.00;98.00;;;;;;5074253;28;20973;-75
2021/08/21 07:06:25;;;;;;;1.20;1.20;;;18.10;98.00;;;;;;5074439;28;20497;-75
2021/08/21 07:08:52;;;;;;;1.93;1.30;;;18.10;98.00;;;;;;5074088;28;20539;-75
2021/08/21 07:11:21;;;;;;;1.43;1.40;;;18.20;98.00;;;;;;5074107;28;20852;-75
2021/08/21 07:13:48;;;;;;;1.40;1.20;;;18.30;98.00;;;;;;5074052;28;20597;-75
2021/08/21 07:16:22;;;;;;;1.63;1.53;;;18.30;98.00;;;;;;5073972;28;20487;-75
2021/08/21 07:18:50;;;;;;;1.50;1.50;;;18.30;98.00;;;;;;5025383;28;20456;-75
2021/08/21 07:21:17;;;;;;;1.83;1.40;;;18.30;98.00;;;;;;5073785;28;20480;-75
2021/08/21 07:23:44;;;;;;;1.60;1.23;;;18.50;98.00;;;;;;5074010;28;20460;-76
2021/08/21 07:26:11;;;;;;;1.63;1.40;;;18.50;98.00;;;;;;5073957;28;20457;-75
2021/08/21 07:28:39;;;;;;;1.40;1.20;;;18.50;98.00;;;;;;5073769;28;20492;-76
2021/08/21 07:31:06;;;;;;;1.87;1.60;;;18.60;98.00;;;;;;5073891;28;20469;-75
2021/08/21 07:33:33;;;;;;;2.27;1.40;;;18.60;98.00;;;;;;5073689;28;20457;-75
2021/08/21 07:36:00;;;;;;;1.60;1.30;;;18.70;98.00;;;;;;5056078;28;20534;-76
2021/08/21 07:38:27;;;;;;;1.70;1.67;;;18.80;98.00;;;;;;5073280;28;20541;-75
2021/08/21 07:40:53;;;;;;;2.03;1.70;;;19.00;98.00;;;;;;5073486;28;20567;-75
2021/08/21 07:43:21;;;;;;;1.27;1.23;;;19.10;98.00;;;;;;5073604;28;20955;-75
2021/08/21 07:45:49;;;;;;;1.60;1.20;;;19.10;98.00;;;;;;5073523;28;20560;-76
2021/08/21 07:48:16;;;;;;;1.77;1.43;;;19.20;98.00;;;;;;5073603;28;20492;-76
2021/08/21 07:50:44;;;;;;;1.53;1.20;;;19.30;98.00;;;;;;5073789;28;20951;-76
2021/08/21 07:53:11;;;;;;;1.67;1.40;;;19.40;98.00;;;;;;5073734;28;20502;-75
2021/08/21 07:55:38;;;;;;;1.30;1.30;;;19.60;98.00;;;;;;5073643;28;20449;-75
2021/08/21 07:58:05;;;;;;;1.40;1.20;;;19.70;98.00;;;;;;5073496;28;20889;-76
2021/08/21 08:00:33;;;;;;;1.50;1.40;;;19.80;98.00;;;;;;5073196;28;20520;-76
2021/08/21 08:03:01;;;;;;;1.40;1.20;;;19.90;98.00;;;;;;5055525;28;20879;-75
2021/08/21 08:05:28;;;;;;;1.53;1.30;;;20.00;98.00;;;;;;5073193;28;20510;-76
2021/08/21 08:07:55;;;;;;;1.60;1.40;;;20.10;98.00;;;;;;5073257;28;20460;-77
2021/08/21 08:10:23;;;;;;;1.60;1.40;;;20.10;98.00;;;;;;5073152;28;20855;-76
2021/08/21 08:12:50;;;;;;;1.40;1.30;;;20.20;98.00;;;;;;5073082;28;20553;-75
2021/08/21 08:15:17;;;;;;;1.73;1.57;;;20.30;98.00;;;;;;5072952;28;20514;-75
2021/08/21 08:17:44;;;;;;;1.60;1.40;;;20.40;98.00;;;;;;5072957;28;20547;-76
2021/08/21 08:20:13;;;;;;;1.97;1.50;;;20.50;98.00;;;;;;5072690;28;20491;-75
2021/08/21 08:22:41;;;;;;;1.50;1.30;;;20.60;98.00;;;;;;5072778;28;20453;-76
2021/08/21 08:25:09;;;;;;;3.77;1.50;;;20.70;98.00;;;;;;5072791;28;20460;-76
2021/08/21 08:27:36;;;;;;;1.90;1.53;;;20.80;98.00;;;;;;5072821;28;20495;-75
2021/08/21 08:30:05;;;;;;;2.03;1.40;;;20.90;98.00;;;;;;5072772;28;20475;-75
2021/08/21 08:32:32;;;;;;;1.53;1.47;;;21.10;98.00;;;;;;5054658;28;20555;-75
2021/08/21 08:34:59;;;;;;;1.53;1.30;;;21.30;98.00;;;;;;5072523;28;20453;-76
2021/08/21 08:37:27;;;;;;;1.47;1.30;;;21.50;98.00;;;;;;5072612;28;20480;-76
2021/08/21 08:39:54;;;;;;;2.33;1.93;;;21.80;98.00;;;;;;5054683;28;20492;-76
2021/08/21 08:42:23;;;;;;;4.03;2.20;;;22.00;98.00;;;;;;5072175;28;20485;-75
2021/08/21 08:44:50;;;;;;;2.30;1.80;;;22.10;98.00;;;;;;5072467;28;20488;-75
2021/08/21 08:47:19;;;;;;;1.67;1.60;;;22.10;98.00;;;;;;5072275;28;20491;-76
2021/08/21 08:49:48;;;;;;;8.43;1.60;;;22.30;98.00;;;;;;5071469;28;20493;-76
2021/08/21 08:52:15;;;;;;;1.83;1.60;;;22.50;98.00;;;;;;5072070;28;20492;-76
2021/08/21 08:54:44;;;;;;;2.07;1.30;;;22.60;98.00;;;;;;5054502;28;20805;-76
2021/08/21 08:57:18;;;;;;;1.80;1.63;;;22.80;98.00;;;;;;5072065;28;20506;-76
2021/08/21 08:59:45;;;;;;;1.90;1.67;;;23.00;98.00;;;;;;5072093;28;20466;-75
2021/08/21 09:02:12;;;;;;;1.80;1.50;;;23.10;98.00;;;;;;5071928;28;20488;-75
2021/08/21 09:04:42;;;;;;;1.83;1.40;;;23.20;98.00;;;;;;5072118;28;20536;-76
2021/08/21 09:07:12;;;;;;;2.40;1.77;;;23.40;98.00;;;;;;5071933;28;20481;-75
2021/08/21 09:09:39;;;;;;;1.43;1.37;;;23.50;98.00;;;;;;5072065;28;20464;-76
2021/08/21 09:12:23;;;;;;;2.00;1.70;;;23.70;98.00;;;;;;5071854;28;20461;-76
2021/08/21 09:14:52;;;;;;;2.17;1.63;;;23.80;98.00;;;;;;5071967;28;20957;-75
2021/08/21 09:17:21;;;;;;;1.80;1.53;;;24.00;98.00;;;;;;5054051;28;21036;-75
2021/08/21 09:19:48;;;;;;;1.90;1.40;;;24.20;98.00;;;;;;5071691;28;20484;-76
2021/08/21 09:22:15;;;;;;;2.10;1.57;;;24.30;98.00;;;;;;5071192;28;20524;-76
2021/08/21 09:24:43;;;;;;;1.30;1.30;;;24.40;98.00;;;;;;5071514;28;20561;-76
2021/08/21 09:27:25;;;;;;;2.17;1.77;;;24.60;98.00;;;;;;5071509;28;20449;-76
2021/08/21 09:30:07;;;;;;;1.70;1.50;;;24.70;98.00;;;;;;5071636;28;20864;-76
2021/08/21 09:32:34;;;;;;;1.67;1.43;;;25.00;98.00;;;;;;5071206;28;20491;-76
2021/08/21 09:35:06;;;;;;;1.67;1.53;;;25.10;98.00;;;;;;5071341;28;20978;-76
2021/08/21 09:37:46;;;;;;;2.23;1.83;;;25.20;98.00;;;;;;5071427;28;20460;-75
2021/08/21 09:40:27;;;;;;;2.10;1.60;;;25.30;98.00;;;;;;5071314;28;20468;-76
2021/08/21 09:42:57;;;;;;;2.33;1.50;;;25.40;98.00;;;;;;5071305;28;20998;-76
2021/08/21 09:45:26;;;;;;;4.07;1.87;;;25.40;97.70;;;;;;5071286;28;20483;-76
2021/08/21 09:48:00;;;;;;;2.50;1.87;;;25.40;97.90;;;;;;5071169;28;21125;-75
2021/08/21 09:50:27;;;;;;;2.90;1.90;;;25.40;98.00;;;;;;5070646;28;20465;-75
2021/08/21 09:53:01;;;;;;;2.17;1.70;;;25.60;98.00;;;;;;5071303;28;20923;-76
2021/08/21 09:55:29;;;;;;;2.07;1.93;;;25.70;97.50;;;;;;5071102;28;20509;-76
2021/08/21 09:58:03;;;;;;;2.27;1.90;;;25.90;97.70;;;;;;5071113;28;20505;-76
2021/08/21 10:00:31;;;;;;;1.50;1.50;;;26.10;97.70;;;;;;5070753;28;20478;-76
2021/08/21 10:02:59;;;;;;;1.70;1.40;;;26.00;96.50;;;;;;5070955;28;20480;-75
2021/08/21 10:05:27;;;;;;;2.10;1.80;;;26.00;95.00;;;;;;5070989;28;20498;-76
2021/08/21 10:07:57;;;;;;;3.60;1.90;;;26.10;95.60;;;;;;5070952;28;20488;-76
2021/08/21 10:10:28;;;;;;;2.90;1.97;;;26.20;95.60;;;;;;5070963;28;20503;-75
2021/08/21 10:12:58;;;;;;;2.60;2.33;;;26.30;96.70;;;;;;5071032;28;20471;-76
2021/08/21 10:15:28;;;;;;;1.77;1.67;;;26.40;95.00;;;;;;5070937;28;20451;-78
2021/08/21 10:17:56;;;;;;;2.70;1.80;;;26.50;94.20;;;;;;5071141;28;20502;-76
2021/08/21 10:20:23;;;;;;;2.30;1.80;;;26.50;92.20;;;;;;5070871;28;20476;-75
2021/08/21 10:22:50;;;;;;;1.73;1.60;;;26.80;94.00;;;;;;5070757;28;20512;-76
2021/08/21 10:25:19;;;;;;;3.10;2.10;;;27.00;92.50;;;;;;5070861;28;20507;-76
2021/08/21 10:27:53;;;;;;;2.50;2.03;;;27.10;91.60;;;;;;5071000;28;20495;-76
2021/08/21 10:30:23;;;;;;;1.87;1.70;;;27.20;88.90;;;;;;5071005;28;20461;-76
2021/08/21 10:33:00;;;;;;;1.70;1.60;;;27.40;90.90;;;;;;5070966;28;20476;-77
2021/08/21 10:35:49;;;;;;;3.20;2.13;;;27.60;90.10;;;;;;5071015;28;20448;-76
2021/08/21 10:38:36;;;;;;;2.07;1.70;;;27.70;89.20;;;;;;5052847;28;20457;-77
2021/08/21 10:41:41;;;;;;;2.37;1.77;;;27.90;89.90;;;;;;5070700;28;20470;-76
2021/08/21 10:44:09;;;;;;;1.90;1.80;;;28.00;88.60;;;;;;5070773;28;20969;-76
2021/08/21 10:46:55;;;;;;;2.90;2.03;;;28.00;88.60;;;;;;5070636;28;20456;-76
2021/08/21 10:49:43;;;;;;;1.97;1.70;;;28.20;89.40;;;;;;5070615;28;20510;-76
2021/08/21 10:52:44;;;;;;;2.70;2.30;;;28.40;87.60;;;;;;5070557;28;20544;-75
2021/08/21 10:55:17;;;;;;;2.33;1.87;;;28.40;86.10;;;;;;5064151;28;20501;-75
2021/08/21 10:58:08;;;;;;;2.70;2.00;;;28.50;86.20;;;;;;5070364;28;20463;-76
2021/08/21 11:00:53;;;;;;;3.03;2.00;;;28.70;86.30;;;;;;5070303;28;20494;-76
2021/08/21 11:03:42;;;;;;;1.83;1.80;;;28.80;85.40;;;;;;5070404;28;20464;-76
2021/08/21 11:06:11;;;;;;;3.80;2.00;;;28.80;84.90;;;;;;5070333;28;20452;-76
2021/08/21 11:08:58;;;;;;;2.00;1.73;;;28.90;85.80;;;;;;5070446;28;20457;-76
2021/08/21 11:11:30;;;;;;;1.63;1.50;;;28.90;82.60;;;;;;5070365;28;20518;-76
2021/08/21 11:14:00;;;;;;;1.97;1.70;;;29.00;82.60;;;;;;5072909;28;20554;-76
2021/08/21 11:16:46;;;;;;;2.17;2.00;;;29.00;83.20;;;;;;5073999;28;20464;-76
2021/08/21 11:19:14;;;;;;;3.40;2.27;;;29.30;81.80;;;;;;5073956;28;20483;-77
2021/08/21 11:21:42;;;;;;;2.90;2.00;;;29.40;80.00;;;;;;5056157;28;20573;-76
2021/08/21 11:24:26;;;;;;;3.23;2.07;;;29.50;81.00;;;;;;5074049;28;20998;-76
2021/08/21 11:27:32;;;;;;;2.70;2.00;;;29.80;81.30;;;;;;5073842;28;21042;-76
2021/08/21 11:30:26;;;;;;;2.57;1.90;;;30.10;80.20;;;;;;5073775;28;20468;-76
2021/08/21 11:33:03;;;;;;;2.43;1.87;;;30.50;79.70;;;;;;5073648;28;20472;-78
2021/08/21 11:35:32;;;;;;;2.63;1.80;;;30.60;78.90;;;;;;5073698;28;20966;-76
2021/08/21 11:38:03;;;;;;;2.23;1.83;;;30.70;79.20;;;;;;5073734;28;20457;-77
2021/08/21 11:40:39;;;;;;;3.03;2.40;;;31.00;79.10;;;;;;5056144;28;20481;-75
2021/08/21 11:43:07;;;;;;;6.27;2.47;;;31.10;77.70;;;;;;5073741;28;20484;-75
2021/08/21 11:45:35;;;;;;;3.10;2.23;;;30.80;79.40;;;;;;5073603;28;20456;-76
2021/08/21 11:48:03;;;;;;;2.03;1.80;;;30.90;79.90;;;;;;5073666;28;20453;-76
2021/08/21 11:50:33;;;;;;;2.50;1.90;;;31.00;79.30;;;;;;5073640;28;20511;-75
2021/08/21 11:53:04;;;;;;;3.60;1.80;;;31.10;78.70;;;;;;5073643;28;20479;-77
2021/08/21 11:55:32;;;;;;;3.33;2.20;;;31.20;78.60;;;;;;5073729;28;20518;-76
2021/08/21 11:57:59;;;;;;;2.60;1.87;;;31.30;77.40;;;;;;5073452;28;20551;-76
2021/08/21 12:00:28;;;;;;;2.23;2.07;;;31.10;77.60;;;;;;5073487;28;20457;-76
2021/08/21 12:02:57;;;;;;;2.33;1.97;;;31.00;78.20;;;;;;5073252;28;20846;-76
2021/08/21 12:05:33;;;;;;;3.57;2.13;;;30.90;77.80;;;;;;5073128;28;20536;-76
2021/08/21 12:08:14;;;;;;;4.03;2.37;;;30.90;78.60;;;;;;5073494;28;20550;-76
2021/08/21 12:10:49;;;;;;;2.83;2.30;;;31.00;79.10;;;;;;5073063;28;20464;-76
2021/08/21 12:13:19;;;;;;;2.80;2.10;;;31.10;79.00;;;;;;5073278;28;20491;-76
2021/08/21 12:15:48;;;;;;;3.70;2.50;;;30.80;78.60;;;;;;5055686;28;20943;-77
2021/08/21 12:18:16;;;;;;;4.30;2.20;;;30.50;79.70;;;;;;5073171;28;20506;-76
2021/08/21 12:20:43;;;;;;;2.43;2.03;;;30.50;79.40;;;;;;5072745;28;20476;-76
2021/08/21 12:23:13;;;;;;;2.37;2.27;;;30.50;79.70;;;;;;5072742;28;20485;-75
2021/08/21 12:25:55;;;;;;;2.90;2.03;;;30.60;80.50;;;;;;5072714;28;20449;-76
2021/08/21 12:28:24;;;;;;;2.40;1.90;;;30.60;81.70;;;;;;5072924;28;20460;-76
2021/08/21 12:31:00;;;;;;;2.93;2.20;;;30.40;80.70;;;;;;5072609;28;21035;-75
2021/08/21 12:33:29;;;;;;;2.33;2.10;;;30.20;80.90;;;;;;5072853;28;20496;-76
2021/08/21 12:35:56;;;;;;;2.57;2.00;;;30.20;82.70;;;;;;5072512;28;20962;-76
2021/08/21 12:38:24;;;;;;;2.50;2.00;;;30.20;81.80;;;;;;5054898;28;20488;-76
2021/08/21 12:41:08;;;;;;;2.70;1.83;;;30.40;82.40;;;;;;5072514;28;20548;-77
2021/08/21 12:43:35;;;;;;;3.27;2.47;;;30.50;79.40;;;;;;5072524;28;20568;-76
2021/08/21 12:46:02;;;;;;;3.60;2.30;;;30.50;80.50;;;;;;5072392;28;20445;-76
2021/08/21 12:48:29;;;;;;;1.70;1.60;;;30.80;79.70;;;;;;5072496;28;20794;-76
2021/08/21 12:50:56;;;;;;;6.70;1.97;;;30.90;81.40;;;;;;5072277;28;20460;-76
2021/08/21 12:53:25;;;;;;;2.90;2.20;;;31.20;79.40;;;;;;5072333;28;20565;-76
2021/08/21 12:56:09;;;;;;;3.57;2.50;;;31.30;78.80;;;;;;5072224;28;20950;-76
2021/08/21 12:58:37;;;;;;;3.87;2.00;;;31.50;78.90;;;;;;5072072;28;20453;-76
2021/08/21 13:01:08;;;;;;;2.40;2.10;;;31.40;78.00;;;;;;5072266;28;20465;-76